createdAt,value
2022-11-05T00:00:02.748Z,99.76
2022-11-05T00:01:02.721Z,99.66
2022-11-05T00:02:02.791Z,99.66
2022-11-05T00:03:02.747Z,99.66
2022-11-05T00:04:02.768Z,99.66
2022-11-05T00:05:02.694Z,99.66
2022-11-05T00:06:02.683Z,99.66
2022-11-05T00:07:02.659Z,99.66
2022-11-05T00:08:02.666Z,99.76
2022-11-05T00:09:02.641Z,99.76
2022-11-05T00:10:02.617Z,99.76
2022-11-05T00:11:02.639Z,99.86
2022-11-05T00:12:02.592Z,99.86
2022-11-05T00:13:02.568Z,99.96
2022-11-05T00:14:02.564Z,99.96
2022-11-05T00:15:02.571Z,99.96
2022-11-05T00:16:02.531Z,99.99
2022-11-05T00:17:02.558Z,99.99
2022-11-05T00:18:02.500Z,99.99
2022-11-05T00:19:02.511Z,99.99
2022-11-05T00:20:02.492Z,99.99
2022-11-05T00:21:02.465Z,99.99
2022-11-05T00:22:02.472Z,99.99
2022-11-05T00:23:02.441Z,99.99
2022-11-05T00:24:02.423Z,99.99
2022-11-05T00:25:02.416Z,99.99
2022-11-05T00:26:02.459Z,99.99
2022-11-05T00:27:02.409Z,99.99
2022-11-05T00:28:02.378Z,99.99
2022-11-05T00:29:02.383Z,99.99
2022-11-05T00:30:02.343Z,99.99
2022-11-05T00:31:02.348Z,99.99
2022-11-05T00:32:02.306Z,99.99
2022-11-05T00:33:02.319Z,99.99
2022-11-05T00:34:02.425Z,99.99
2022-11-05T00:35:02.296Z,99.99
2022-11-05T00:36:02.254Z,99.99
2022-11-05T00:37:02.250Z,99.99
2022-11-05T00:38:02.260Z,99.99
2022-11-05T00:39:02.211Z,99.99
2022-11-05T00:40:02.202Z,99.99
2022-11-05T00:41:02.196Z,99.99
2022-11-05T00:42:02.175Z,99.99
2022-11-05T00:43:02.193Z,99.99
2022-11-05T00:44:02.146Z,99.99
2022-11-05T00:45:02.283Z,99.99
2022-11-05T00:46:02.125Z,99.99
2022-11-05T00:47:02.123Z,99.99
2022-11-05T00:48:02.101Z,99.99
2022-11-05T00:49:02.105Z,99.99
2022-11-05T00:50:02.068Z,99.99
2022-11-05T00:51:02.089Z,99.99
2022-11-05T00:52:02.040Z,99.99
2022-11-05T00:53:02.029Z,99.99
2022-11-05T00:54:02.013Z,99.99
2022-11-05T00:55:02.036Z,99.99
2022-11-05T00:56:02.011Z,99.99
2022-11-05T00:57:04.596Z,99.99
2022-11-05T00:58:01.976Z,99.99
2022-11-05T00:59:01.954Z,99.99
2022-11-05T01:00:01.943Z,99.99
2022-11-05T01:01:01.938Z,99.99
2022-11-05T01:02:02.039Z,99.99
2022-11-05T01:03:01.904Z,99.99
2022-11-05T01:04:01.904Z,99.99
2022-11-05T01:05:01.873Z,99.99
2022-11-05T01:06:01.879Z,99.99
2022-11-05T01:07:01.848Z,99.99
2022-11-05T01:08:01.835Z,99.99
2022-11-05T01:09:01.823Z,99.99
2022-11-05T01:10:01.810Z,99.99
2022-11-05T01:11:01.814Z,99.99
2022-11-05T01:12:01.830Z,99.99
2022-11-05T01:13:01.780Z,99.99
2022-11-05T01:14:01.792Z,99.99
2022-11-05T01:15:01.747Z,99.99
2022-11-05T01:16:01.746Z,99.99
2022-11-05T01:17:01.783Z,99.99
2022-11-05T01:18:01.703Z,99.99
2022-11-05T01:19:01.696Z,99.99
2022-11-05T01:20:01.675Z,99.99
2022-11-05T01:21:01.675Z,99.99
2022-11-05T01:22:01.678Z,99.99
2022-11-05T01:23:01.632Z,99.99
2022-11-05T01:24:01.633Z,99.99
2022-11-05T01:25:01.607Z,99.99
2022-11-05T01:26:01.600Z,99.99
2022-11-05T01:27:01.593Z,99.99
2022-11-05T01:28:01.585Z,99.99
2022-11-05T01:29:01.635Z,99.99
2022-11-05T01:30:01.535Z,99.99
2022-11-05T01:31:01.545Z,99.99
2022-11-05T01:32:01.570Z,99.99
2022-11-05T01:33:01.498Z,99.99
2022-11-05T01:34:01.535Z,99.99
2022-11-05T01:35:01.467Z,99.99
2022-11-05T01:36:01.470Z,99.99
2022-11-05T01:37:01.442Z,99.99
2022-11-05T01:38:01.430Z,99.99
2022-11-05T01:39:01.438Z,99.99
2022-11-05T01:40:01.410Z,99.99
2022-11-05T01:41:01.398Z,99.99
2022-11-05T01:42:01.370Z,99.99
2022-11-05T01:43:01.377Z,99.99
2022-11-05T01:44:01.346Z,99.99
2022-11-05T01:45:01.334Z,99.99
2022-11-05T01:46:01.324Z,99.99
2022-11-05T01:47:01.303Z,99.99
2022-11-05T01:48:01.323Z,99.99
2022-11-05T01:49:03.390Z,99.99
2022-11-05T01:50:01.273Z,99.99
2022-11-05T01:51:01.255Z,99.99
2022-11-05T01:52:01.258Z,99.99
2022-11-05T01:53:01.218Z,99.99
2022-11-05T01:54:01.222Z,99.99
2022-11-05T01:55:01.218Z,99.99
2022-11-05T01:56:01.208Z,99.99
2022-11-05T01:57:01.168Z,99.99
2022-11-05T01:58:01.160Z,99.99
2022-11-05T01:59:01.162Z,99.99
2022-11-05T02:00:01.155Z,99.99
2022-11-05T02:01:01.141Z,99.99
2022-11-05T02:02:01.298Z,99.99
2022-11-05T02:03:01.188Z,99.99
2022-11-05T02:04:01.076Z,99.99
2022-11-05T02:05:01.066Z,99.99
2022-11-05T02:06:01.064Z,99.99
2022-11-05T02:07:01.069Z,99.99
2022-11-05T02:08:01.039Z,99.99
2022-11-05T02:09:01.003Z,99.99
2022-11-05T02:10:01.003Z,99.99
2022-11-05T02:11:01.015Z,99.99
2022-11-05T02:12:00.965Z,99.99
2022-11-05T02:13:00.982Z,99.99
2022-11-05T02:14:00.952Z,99.99
2022-11-05T02:15:00.938Z,99.99
2022-11-05T02:16:00.918Z,99.99
2022-11-05T02:17:00.920Z,99.99
2022-11-05T02:18:00.918Z,99.99
2022-11-05T02:19:00.895Z,99.99
2022-11-05T02:20:00.864Z,99.99
2022-11-05T02:21:00.845Z,99.99
2022-11-05T02:22:00.834Z,99.99
2022-11-05T02:23:00.877Z,99.99
2022-11-05T02:24:00.811Z,99.99
2022-11-05T02:25:00.798Z,99.99
2022-11-05T02:26:00.792Z,99.99
2022-11-05T02:27:00.787Z,99.99
2022-11-05T02:28:00.781Z,99.99
2022-11-05T02:29:00.748Z,99.99
2022-11-05T02:30:00.719Z,99.99
2022-11-05T02:31:00.753Z,99.99
2022-11-05T02:32:00.741Z,99.99
2022-11-05T02:33:00.688Z,99.99
2022-11-05T02:34:00.684Z,99.99
2022-11-05T02:35:00.654Z,99.99
2022-11-05T02:36:00.670Z,99.99
2022-11-05T02:37:00.662Z,99.99
2022-11-05T02:38:00.630Z,99.99
2022-11-05T02:39:00.601Z,99.99
2022-11-05T02:40:00.603Z,99.99
2022-11-05T02:41:00.568Z,99.99
2022-11-05T02:42:04.785Z,99.99
2022-11-05T02:43:00.552Z,99.99
2022-11-05T02:44:00.600Z,99.99
2022-11-05T02:45:00.535Z,99.99
2022-11-05T02:46:00.538Z,99.99
2022-11-05T02:47:00.507Z,99.99
2022-11-05T02:48:00.509Z,99.99
2022-11-05T02:49:00.479Z,99.99
2022-11-05T02:50:00.480Z,99.99
2022-11-05T02:51:00.488Z,99.99
2022-11-05T02:52:00.439Z,99.99
2022-11-05T02:53:00.432Z,99.99
2022-11-05T02:54:00.410Z,99.99
2022-11-05T02:55:00.429Z,99.99
2022-11-05T02:56:00.385Z,99.99
2022-11-05T02:57:00.363Z,99.99
2022-11-05T02:58:00.353Z,99.99
2022-11-05T02:59:00.348Z,99.99
2022-11-05T03:00:00.364Z,99.99
2022-11-05T03:01:00.325Z,99.99
2022-11-05T03:02:00.426Z,99.99
2022-11-05T03:03:00.380Z,99.99
2022-11-05T03:04:00.300Z,99.99
2022-11-05T03:05:00.253Z,99.99
2022-11-05T03:06:00.256Z,99.99
2022-11-05T03:07:00.253Z,99.99
2022-11-05T03:08:00.221Z,99.99
2022-11-05T03:09:00.219Z,99.99
2022-11-05T03:10:00.199Z,99.99
2022-11-05T03:11:00.188Z,99.99
2022-11-05T03:12:00.195Z,99.99
2022-11-05T03:13:00.158Z,99.99
2022-11-05T03:14:00.136Z,99.99
2022-11-05T03:15:00.149Z,99.99
2022-11-05T03:16:00.116Z,99.99
2022-11-05T03:17:00.111Z,99.99
2022-11-05T03:18:00.106Z,99.99
2022-11-05T03:19:00.065Z,99.99
2022-11-05T03:20:00.076Z,99.99
2022-11-05T03:21:00.045Z,99.99
2022-11-05T03:22:00.034Z,99.99
2022-11-05T03:23:00.026Z,99.99
2022-11-05T03:24:00.009Z,99.99
2022-11-05T03:25:00.005Z,99.99
2022-11-05T03:25:59.970Z,99.99
2022-11-05T03:26:59.983Z,99.99
2022-11-05T03:27:59.965Z,99.99
2022-11-05T03:28:59.932Z,99.99
2022-11-05T03:29:59.926Z,99.99
2022-11-05T03:30:59.910Z,99.99
2022-11-05T03:31:59.909Z,99.99
2022-11-05T03:32:59.905Z,99.99
2022-11-05T03:33:59.894Z,99.99
2022-11-05T03:34:59.846Z,99.99
2022-11-05T03:35:59.839Z,99.99
2022-11-05T03:36:59.830Z,99.99
2022-11-05T03:37:59.848Z,99.99
2022-11-05T03:38:59.795Z,99.99
2022-11-05T03:39:59.793Z,99.99
2022-11-05T03:40:59.769Z,99.99
2022-11-05T03:41:59.774Z,99.99
2022-11-05T03:42:59.731Z,99.99
2022-11-05T03:43:59.755Z,99.99
2022-11-05T03:44:59.711Z,99.99
2022-11-05T03:45:59.715Z,99.99
2022-11-05T03:46:59.679Z,99.99
2022-11-05T03:47:59.700Z,99.99
2022-11-05T03:48:59.736Z,99.99
2022-11-05T03:49:59.653Z,99.99
2022-11-05T03:50:59.640Z,99.99
2022-11-05T03:51:59.627Z,99.99
2022-11-05T03:52:59.628Z,99.99
2022-11-05T03:53:59.615Z,99.99
2022-11-05T03:54:59.601Z,99.99
2022-11-05T03:55:59.570Z,99.99
2022-11-05T03:56:59.562Z,99.99
2022-11-05T03:57:59.546Z,99.99
2022-11-05T03:58:59.559Z,99.99
2022-11-05T03:59:59.514Z,99.99
2022-11-05T04:00:59.540Z,99.99
2022-11-05T04:01:59.615Z,99.99
2022-11-05T04:02:59.533Z,99.99
2022-11-05T04:03:59.492Z,99.99
2022-11-05T04:04:59.487Z,99.99
2022-11-05T04:05:59.447Z,99.99
2022-11-05T04:06:59.447Z,99.99
2022-11-05T04:07:59.413Z,99.99
2022-11-05T04:08:59.405Z,99.99
2022-11-05T04:09:59.383Z,99.99
2022-11-05T04:10:59.381Z,99.99
2022-11-05T04:11:59.383Z,99.99
2022-11-05T04:12:59.347Z,99.99
2022-11-05T04:13:59.341Z,99.99
2022-11-05T04:14:59.309Z,99.99
2022-11-05T04:15:59.313Z,99.99
2022-11-05T04:16:59.327Z,99.99
2022-11-05T04:17:59.270Z,99.99
2022-11-05T04:18:59.265Z,99.99
2022-11-05T04:19:59.256Z,99.99
2022-11-05T04:20:59.247Z,99.99
2022-11-05T04:21:59.233Z,99.99
2022-11-05T04:22:59.243Z,99.99
2022-11-05T04:23:59.203Z,99.99
2022-11-05T04:24:59.185Z,99.99
2022-11-05T04:25:59.169Z,99.99
2022-11-05T04:26:59.164Z,99.99
2022-11-05T04:27:59.164Z,99.99
2022-11-05T04:29:01.447Z,99.99
2022-11-05T04:29:59.147Z,99.99
2022-11-05T04:30:59.107Z,99.99
2022-11-05T04:31:59.161Z,99.99
2022-11-05T04:32:59.093Z,99.99
2022-11-05T04:33:59.074Z,99.99
2022-11-05T04:34:59.080Z,99.99
2022-11-05T04:35:59.045Z,99.99
2022-11-05T04:36:59.095Z,99.99
2022-11-05T04:37:59.008Z,99.99
2022-11-05T04:38:59.001Z,99.99
2022-11-05T04:39:59.006Z,99.99
2022-11-05T04:40:58.960Z,99.99
2022-11-05T04:41:58.983Z,99.99
2022-11-05T04:42:58.937Z,99.99
2022-11-05T04:43:58.933Z,99.99
2022-11-05T04:44:58.942Z,99.99
2022-11-05T04:45:58.911Z,99.99
2022-11-05T04:46:58.877Z,99.99
2022-11-05T04:47:58.878Z,99.99
2022-11-05T04:48:58.869Z,99.99
2022-11-05T04:49:58.889Z,99.99
2022-11-05T04:50:58.847Z,99.99
2022-11-05T04:51:58.828Z,99.99
2022-11-05T04:52:58.810Z,99.99
2022-11-05T04:53:58.825Z,99.99
2022-11-05T04:54:58.789Z,99.99
2022-11-05T04:55:58.785Z,99.99
2022-11-05T04:56:58.751Z,99.99
2022-11-05T04:57:58.766Z,99.99
2022-11-05T04:58:58.752Z,99.99
2022-11-05T04:59:58.734Z,99.99
2022-11-05T05:00:58.750Z,99.99
2022-11-05T05:01:58.771Z,99.99
2022-11-05T05:02:58.692Z,99.99
2022-11-05T05:03:58.664Z,99.99
2022-11-05T05:04:58.663Z,99.99
2022-11-05T05:06:03.547Z,99.99
2022-11-05T05:06:58.622Z,99.99
2022-11-05T05:07:58.640Z,99.99
2022-11-05T05:08:58.600Z,99.99
2022-11-05T05:09:58.613Z,99.99
2022-11-05T05:10:58.562Z,99.99
2022-11-05T05:11:58.572Z,99.99
2022-11-05T05:12:58.572Z,99.99
2022-11-05T05:13:58.562Z,99.99
2022-11-05T05:14:58.511Z,99.99
2022-11-05T05:15:58.498Z,99.99
2022-11-05T05:16:58.514Z,99.99
2022-11-05T05:17:58.480Z,99.99
2022-11-05T05:18:58.451Z,99.99
2022-11-05T05:19:58.439Z,99.99
2022-11-05T05:20:58.435Z,99.99
2022-11-05T05:21:58.414Z,99.99
2022-11-05T05:22:58.412Z,99.99
2022-11-05T05:23:58.417Z,99.99
2022-11-05T05:24:58.377Z,99.99
2022-11-05T05:25:58.372Z,99.99
2022-11-05T05:26:58.375Z,99.99
2022-11-05T05:27:58.340Z,99.99
2022-11-05T05:28:58.323Z,99.99
2022-11-05T05:29:58.325Z,99.99
2022-11-05T05:30:58.882Z,99.99
2022-11-05T05:31:58.315Z,99.99
2022-11-05T05:32:58.281Z,99.99
2022-11-05T05:33:58.262Z,99.99
2022-11-05T05:34:58.241Z,99.99
2022-11-05T05:35:58.257Z,99.99
2022-11-05T05:36:58.230Z,99.99
2022-11-05T05:37:58.218Z,99.99
2022-11-05T05:38:58.194Z,99.99
2022-11-05T05:39:58.277Z,99.99
2022-11-05T05:40:58.170Z,99.99
2022-11-05T05:41:58.158Z,99.99
2022-11-05T05:42:58.139Z,99.99
2022-11-05T05:43:58.131Z,99.99
2022-11-05T05:44:58.134Z,99.99
2022-11-05T05:45:58.099Z,99.99
2022-11-05T05:46:58.139Z,99.99
2022-11-05T05:47:58.090Z,99.99
2022-11-05T05:48:58.072Z,99.99
2022-11-05T05:49:58.071Z,99.99
2022-11-05T05:50:58.033Z,99.99
2022-11-05T05:51:58.033Z,99.99
2022-11-05T05:52:57.994Z,99.99
2022-11-05T05:53:58.016Z,99.99
2022-11-05T05:54:58.011Z,99.99
2022-11-05T05:55:57.966Z,99.99
2022-11-05T05:56:57.966Z,99.99
2022-11-05T05:57:57.973Z,99.99
2022-11-05T05:58:57.919Z,99.99
2022-11-05T05:59:57.910Z,99.99
2022-11-05T06:00:57.898Z,99.99
2022-11-05T06:01:58.032Z,99.99
2022-11-05T06:02:57.937Z,99.99
2022-11-05T06:03:57.868Z,99.99
2022-11-05T06:04:57.913Z,99.99
2022-11-05T06:05:57.834Z,99.99
2022-11-05T06:06:57.856Z,99.99
2022-11-05T06:07:57.794Z,99.99
2022-11-05T06:08:57.810Z,99.99
2022-11-05T06:09:57.780Z,99.99
2022-11-05T06:10:57.806Z,99.99
2022-11-05T06:11:57.794Z,99.99
2022-11-05T06:12:57.751Z,99.99
2022-11-05T06:13:57.768Z,99.99
2022-11-05T06:14:57.722Z,99.99
2022-11-05T06:15:57.693Z,99.99
2022-11-05T06:16:57.708Z,99.99
2022-11-05T06:17:57.799Z,99.99
2022-11-05T06:18:57.656Z,99.99
2022-11-05T06:19:57.642Z,99.99
2022-11-05T06:20:57.659Z,99.99
2022-11-05T06:21:57.618Z,99.99
2022-11-05T06:22:58.079Z,99.90
2022-11-05T06:23:57.599Z,99.90
2022-11-05T06:24:57.707Z,99.90
2022-11-05T06:25:57.563Z,99.90
2022-11-05T06:26:57.577Z,99.90
2022-11-05T06:27:57.544Z,99.99
2022-11-05T06:28:57.571Z,99.99
2022-11-05T06:29:57.515Z,99.99
2022-11-05T06:30:57.543Z,99.99
2022-11-05T06:31:57.478Z,99.99
2022-11-05T06:32:57.471Z,99.99
2022-11-05T06:33:57.484Z,99.99
2022-11-05T06:34:57.447Z,99.99
2022-11-05T06:35:57.435Z,99.99
2022-11-05T06:36:57.428Z,99.95
2022-11-05T06:37:57.424Z,99.90
2022-11-05T06:38:57.412Z,99.79
2022-11-05T06:39:57.381Z,99.79
2022-11-05T06:40:58.072Z,99.79
2022-11-05T06:42:17.454Z,99.79
2022-11-05T06:42:57.350Z,99.79
2022-11-05T06:43:57.321Z,99.79
2022-11-05T06:44:57.343Z,99.79
2022-11-05T06:45:57.311Z,99.79
2022-11-05T06:46:57.281Z,99.79
2022-11-05T06:47:57.268Z,99.69
2022-11-05T06:48:57.320Z,99.69
2022-11-05T06:49:57.249Z,99.59
2022-11-05T06:50:57.242Z,99.54
2022-11-05T06:51:57.215Z,99.59
2022-11-05T06:52:57.241Z,99.49
2022-11-05T06:53:57.200Z,99.44
2022-11-05T06:54:57.193Z,99.54
2022-11-05T06:55:57.175Z,99.44
2022-11-05T06:56:57.160Z,99.38
2022-11-05T06:57:57.141Z,99.34
2022-11-05T06:58:57.158Z,99.34
2022-11-05T07:00:01.390Z,99.34
2022-11-05T07:00:57.129Z,99.34
2022-11-05T07:01:57.164Z,99.34
2022-11-05T07:02:57.106Z,99.24
2022-11-05T07:03:57.101Z,99.03
2022-11-05T07:04:57.067Z,98.93
2022-11-05T07:05:57.049Z,98.72
2022-11-05T07:06:57.044Z,98.62
2022-11-05T07:07:57.013Z,98.57
2022-11-05T07:08:57.027Z,98.42
2022-11-05T07:09:56.975Z,98.36
2022-11-05T07:10:56.978Z,98.36
2022-11-05T07:11:56.952Z,98.05
2022-11-05T07:12:56.958Z,98.05
2022-11-05T07:13:56.925Z,97.95
2022-11-05T07:14:56.922Z,97.95
2022-11-05T07:15:56.901Z,97.85
2022-11-05T07:16:56.918Z,97.64
2022-11-05T07:17:56.878Z,97.54
2022-11-05T07:18:56.868Z,97.44
2022-11-05T07:19:56.855Z,97.44
2022-11-05T07:20:56.843Z,97.44
2022-11-05T07:21:56.836Z,97.44
2022-11-05T07:22:56.859Z,97.44
2022-11-05T07:23:56.783Z,97.23
2022-11-05T07:24:56.776Z,97.33
2022-11-05T07:25:56.764Z,97.23
2022-11-05T07:26:56.789Z,97.13
2022-11-05T07:27:56.786Z,97.03
2022-11-05T07:28:56.727Z,96.92
2022-11-05T07:29:56.710Z,96.82
2022-11-05T07:30:56.701Z,96.72
2022-11-05T07:31:56.731Z,96.72
2022-11-05T07:32:56.720Z,96.62
2022-11-05T07:33:56.655Z,96.62
2022-11-05T07:34:56.651Z,96.62
2022-11-05T07:35:56.649Z,96.72
2022-11-05T07:36:56.641Z,96.72
2022-11-05T07:37:56.638Z,96.82
2022-11-05T07:39:00.288Z,96.82
2022-11-05T07:39:56.607Z,96.72
2022-11-05T07:40:56.583Z,96.72
2022-11-05T07:41:56.575Z,96.72
2022-11-05T07:42:56.543Z,96.82
2022-11-05T07:43:56.591Z,96.98
2022-11-05T07:44:56.510Z,97.19
2022-11-05T07:45:56.513Z,97.29
2022-11-05T07:46:56.492Z,97.19
2022-11-05T07:47:56.475Z,97.29
2022-11-05T07:48:56.514Z,97.29
2022-11-05T07:49:56.446Z,97.49
2022-11-05T07:50:56.449Z,97.39
2022-11-05T07:51:56.448Z,97.19
2022-11-05T07:52:56.432Z,97.08
2022-11-05T07:53:56.423Z,96.98
2022-11-05T07:54:56.386Z,96.78
2022-11-05T07:55:56.369Z,96.67
2022-11-05T07:56:56.355Z,96.47
2022-11-05T07:57:56.346Z,96.47
2022-11-05T07:58:56.354Z,96.26
2022-11-05T07:59:56.313Z,96.26
2022-11-05T08:00:56.408Z,96.16
2022-11-05T08:01:56.491Z,96.16
2022-11-05T08:02:58.573Z,96.16
2022-11-05T08:03:56.267Z,95.95
2022-11-05T08:04:56.279Z,95.86
2022-11-05T08:05:56.234Z,95.75
2022-11-05T08:06:56.217Z,95.86
2022-11-05T08:07:56.208Z,96.16
2022-11-05T08:08:56.195Z,95.86
2022-11-05T08:09:56.197Z,95.75
2022-11-05T08:10:56.168Z,95.86
2022-11-05T08:12:01.449Z,95.86
2022-11-05T08:12:56.165Z,95.86
2022-11-05T08:13:56.135Z,95.75
2022-11-05T08:14:56.131Z,95.86
2022-11-05T08:15:56.118Z,95.95
2022-11-05T08:16:56.128Z,95.86
2022-11-05T08:17:56.071Z,95.86
2022-11-05T08:18:56.070Z,95.86
2022-11-05T08:19:56.043Z,95.75
2022-11-05T08:20:56.046Z,95.86
2022-11-05T08:21:56.046Z,96.06
2022-11-05T08:22:56.015Z,96.12
2022-11-05T08:23:56.041Z,95.91
2022-11-05T08:24:55.981Z,95.70
2022-11-05T08:25:55.996Z,95.50
2022-11-05T08:26:56.046Z,95.40
2022-11-05T08:27:55.960Z,95.40
2022-11-05T08:28:55.972Z,95.29
2022-11-05T08:29:55.960Z,95.20
2022-11-05T08:30:55.914Z,94.99
2022-11-05T08:31:55.882Z,94.99
2022-11-05T08:32:55.928Z,95.09
2022-11-05T08:34:01.302Z,94.84
2022-11-05T08:34:55.856Z,94.95
2022-11-05T08:35:55.848Z,94.84
2022-11-05T08:36:55.834Z,94.64
2022-11-05T08:37:55.798Z,94.33
2022-11-05T08:38:55.822Z,94.29
2022-11-05T08:39:55.816Z,94.29
2022-11-05T08:40:55.788Z,94.29
2022-11-05T08:41:55.753Z,94.39
2022-11-05T08:42:55.739Z,93.77
2022-11-05T08:43:55.743Z,93.57
2022-11-05T08:44:55.718Z,93.37
2022-11-05T08:45:55.724Z,93.06
2022-11-05T08:46:55.692Z,92.55
2022-11-05T08:47:55.665Z,92.55
2022-11-05T08:48:55.669Z,92.44
2022-11-05T08:49:55.654Z,91.67
2022-11-05T08:50:55.660Z,91.56
2022-11-05T08:51:56.053Z,91.63
2022-11-05T08:52:55.603Z,91.77
2022-11-05T08:53:55.613Z,91.67
2022-11-05T08:54:55.593Z,91.97
2022-11-05T08:55:55.563Z,92.24
2022-11-05T08:56:55.594Z,92.65
2022-11-05T08:57:55.533Z,92.75
2022-11-05T08:58:55.540Z,92.65
2022-11-05T08:59:55.563Z,92.14
2022-11-05T09:00:58.992Z,91.93
2022-11-05T09:01:55.684Z,91.83
2022-11-05T09:02:55.491Z,91.63
2022-11-05T09:03:55.464Z,91.73
2022-11-05T09:04:55.444Z,91.93
2022-11-05T09:05:55.455Z,92.24
2022-11-05T09:06:55.435Z,92.44
2022-11-05T09:08:01.019Z,92.85
2022-11-05T09:08:55.411Z,92.96
2022-11-05T09:09:55.409Z,92.96
2022-11-05T09:10:55.408Z,93.22
2022-11-05T09:12:11.817Z,93.12
2022-11-05T09:12:55.341Z,93.22
2022-11-05T09:13:55.352Z,93.22
2022-11-05T09:14:55.317Z,92.91
2022-11-05T09:15:55.319Z,92.60
2022-11-05T09:16:55.312Z,92.30
2022-11-05T09:17:55.259Z,92.10
2022-11-05T09:18:55.256Z,92.40
2022-11-05T09:19:55.242Z,92.19
2022-11-05T09:20:55.251Z,91.99
2022-11-05T09:21:55.246Z,91.99
2022-11-05T09:22:55.216Z,91.73
2022-11-05T09:23:55.193Z,91.99
2022-11-05T09:24:55.184Z,92.40
2022-11-05T09:25:55.168Z,92.71
2022-11-05T09:26:55.364Z,93.22
2022-11-05T09:27:55.131Z,93.43
2022-11-05T09:28:55.125Z,93.59
2022-11-05T09:29:55.109Z,93.69
2022-11-05T09:30:55.148Z,93.38
2022-11-05T09:31:55.095Z,93.07
2022-11-05T09:32:55.093Z,93.18
2022-11-05T09:33:55.067Z,93.48
2022-11-05T09:34:55.048Z,93.54
2022-11-05T09:35:55.026Z,93.24
2022-11-05T09:36:55.010Z,93.13
2022-11-05T09:38:00.619Z,93.03
2022-11-05T09:38:54.999Z,92.99
2022-11-05T09:39:54.984Z,92.47
2022-11-05T09:40:54.961Z,91.96
2022-11-05T09:41:54.991Z,91.25
2022-11-05T09:42:54.967Z,90.47
2022-11-05T09:43:54.921Z,90.88
2022-11-05T09:44:54.912Z,91.19
2022-11-05T09:45:54.899Z,91.29
2022-11-05T09:46:54.907Z,91.35
2022-11-05T09:47:54.905Z,91.15
2022-11-05T09:48:54.854Z,90.06
2022-11-05T09:49:54.839Z,89.76
2022-11-05T09:50:54.825Z,90.06
2022-11-05T09:51:54.821Z,90.99
2022-11-05T09:52:54.831Z,91.50
2022-11-05T09:53:54.783Z,92.01
2022-11-05T09:54:54.766Z,91.80
2022-11-05T09:55:54.783Z,91.56
2022-11-05T09:56:54.761Z,91.66
2022-11-05T09:57:54.733Z,91.66
2022-11-05T09:58:54.732Z,91.35
2022-11-05T09:59:54.722Z,90.90
2022-11-05T10:00:54.751Z,90.19
2022-11-05T10:01:54.840Z,89.88
2022-11-05T10:02:54.658Z,89.58
2022-11-05T10:03:54.671Z,89.78
2022-11-05T10:04:54.701Z,89.26
2022-11-05T10:05:54.651Z,87.94
2022-11-05T10:06:54.667Z,88.14
2022-11-05T10:07:54.602Z,88.65
2022-11-05T10:08:54.652Z,88.96
2022-11-05T10:09:54.581Z,89.17
2022-11-05T10:10:54.734Z,89.17
2022-11-05T10:11:54.535Z,88.45
2022-11-05T10:12:54.571Z,88.45
2022-11-05T10:13:54.513Z,88.65
2022-11-05T10:14:54.533Z,89.26
2022-11-05T10:15:54.541Z,89.31
2022-11-05T10:16:54.477Z,89.00
2022-11-05T10:17:54.446Z,89.00
2022-11-05T10:18:54.461Z,89.20
2022-11-05T10:19:54.472Z,89.00
2022-11-05T10:20:54.445Z,89.20
2022-11-05T10:22:09.660Z,89.61
2022-11-05T10:22:54.391Z,89.72
2022-11-05T10:23:54.380Z,89.82
2022-11-05T10:24:54.393Z,89.61
2022-11-05T10:25:54.382Z,90.33
2022-11-05T10:26:54.350Z,90.23
2022-11-05T10:27:54.331Z,90.02
2022-11-05T10:28:54.399Z,90.12
2022-11-05T10:29:54.317Z,89.92
2022-11-05T10:30:54.287Z,89.31
2022-11-05T10:31:54.281Z,89.00
2022-11-05T10:32:54.255Z,89.41
2022-11-05T10:33:54.266Z,89.41
2022-11-05T10:34:54.270Z,89.51
2022-11-05T10:35:54.264Z,89.61
2022-11-05T10:36:54.245Z,89.61
2022-11-05T10:37:54.250Z,89.41
2022-11-05T10:38:54.170Z,88.90
2022-11-05T10:39:54.199Z,88.39
2022-11-05T10:40:54.165Z,88.29
2022-11-05T10:41:54.137Z,88.49
2022-11-05T10:42:54.147Z,88.49
2022-11-05T10:43:54.137Z,88.70
2022-11-05T10:44:54.097Z,88.39
2022-11-05T10:45:54.106Z,88.08
2022-11-05T10:46:54.079Z,87.26
2022-11-05T10:47:54.156Z,87.32
2022-11-05T10:48:54.058Z,87.12
2022-11-05T10:49:54.049Z,87.12
2022-11-05T10:50:54.100Z,86.61
2022-11-05T10:51:54.010Z,87.12
2022-11-05T10:52:53.980Z,86.71
2022-11-05T10:53:58.844Z,86.10
2022-11-05T10:54:53.969Z,86.71
2022-11-05T10:55:53.976Z,87.02
2022-11-05T10:56:53.944Z,86.71
2022-11-05T10:57:53.938Z,86.77
2022-11-05T10:58:53.903Z,86.47
2022-11-05T10:59:53.912Z,86.88
2022-11-05T11:00:53.985Z,86.88
2022-11-05T11:01:54.024Z,86.77
2022-11-05T11:02:53.874Z,86.77
2022-11-05T11:03:53.861Z,87.18
2022-11-05T11:04:53.858Z,87.49
2022-11-05T11:05:53.853Z,87.59
2022-11-05T11:06:53.819Z,88.00
2022-11-05T11:07:53.804Z,86.77
2022-11-05T11:08:53.788Z,86.36
2022-11-05T11:09:53.803Z,86.26
2022-11-05T11:10:53.757Z,86.51
2022-11-05T11:11:53.764Z,87.12
2022-11-05T11:12:53.746Z,87.84
2022-11-05T11:13:53.768Z,88.41
2022-11-05T11:14:53.696Z,88.41
2022-11-05T11:15:53.680Z,88.51
2022-11-05T11:16:53.669Z,88.51
2022-11-05T11:17:53.690Z,88.61
2022-11-05T11:18:53.672Z,88.31
2022-11-05T11:19:53.731Z,88.20
2022-11-05T11:20:53.639Z,88.41
2022-11-05T11:21:53.640Z,88.51
2022-11-05T11:22:53.601Z,88.61
2022-11-05T11:23:53.596Z,88.31
2022-11-05T11:24:53.645Z,88.45
2022-11-05T11:25:53.590Z,88.45
2022-11-05T11:26:53.603Z,88.14
2022-11-05T11:27:53.570Z,88.24
2022-11-05T11:28:53.514Z,87.94
2022-11-05T11:29:53.509Z,88.14
2022-11-05T11:30:53.507Z,88.65
2022-11-05T11:31:53.486Z,88.24
2022-11-05T11:32:53.782Z,88.65
2022-11-05T11:33:53.786Z,88.55
2022-11-05T11:34:53.449Z,88.04
2022-11-05T11:35:53.451Z,88.04
2022-11-05T11:36:53.420Z,87.94
2022-11-05T11:37:53.370Z,88.04
2022-11-05T11:38:53.385Z,88.14
2022-11-05T11:39:53.388Z,88.45
2022-11-05T11:40:53.353Z,88.45
2022-11-05T11:41:53.321Z,88.35
2022-11-05T11:42:53.383Z,88.35
2022-11-05T11:43:53.298Z,88.24
2022-11-05T11:44:53.316Z,88.45
2022-11-05T11:45:53.299Z,88.76
2022-11-05T11:46:53.265Z,88.82
2022-11-05T11:47:53.233Z,88.61
2022-11-05T11:48:53.257Z,89.02
2022-11-05T11:49:53.240Z,88.67
2022-11-05T11:50:53.236Z,87.96
2022-11-05T11:51:53.195Z,87.45
2022-11-05T11:52:53.187Z,87.35
2022-11-05T11:53:53.171Z,87.35
2022-11-05T11:54:53.167Z,87.45
2022-11-05T11:55:53.223Z,85.92
2022-11-05T11:56:53.136Z,84.90
2022-11-05T11:57:53.173Z,84.08
2022-11-05T11:58:53.132Z,84.59
2022-11-05T12:00:09.624Z,83.16
2022-11-05T12:00:53.072Z,84.14
2022-11-05T12:01:53.267Z,84.14
2022-11-05T12:02:55.977Z,83.43
2022-11-05T12:03:53.047Z,82.00
2022-11-05T12:04:53.023Z,82.51
2022-11-05T12:05:53.008Z,82.27
2022-11-05T12:06:53.002Z,82.88
2022-11-05T12:07:53.110Z,82.88
2022-11-05T12:09:00.602Z,82.37
2022-11-05T12:09:52.977Z,81.72
2022-11-05T12:10:52.947Z,81.62
2022-11-05T12:11:52.910Z,81.72
2022-11-05T12:12:52.913Z,81.93
2022-11-05T12:13:52.891Z,81.82
2022-11-05T12:14:52.906Z,81.72
2022-11-05T12:15:52.879Z,81.45
2022-11-05T12:16:52.861Z,81.66
2022-11-05T12:17:52.884Z,82.27
2022-11-05T12:18:52.825Z,82.07
2022-11-05T12:19:52.836Z,81.35
2022-11-05T12:20:57.985Z,81.80
2022-11-05T12:21:53.575Z,81.59
2022-11-05T12:22:52.782Z,81.90
2022-11-05T12:23:52.760Z,81.90
2022-11-05T12:24:52.762Z,82.71
2022-11-05T12:25:52.735Z,82.61
2022-11-05T12:26:52.760Z,81.90
2022-11-05T12:27:52.731Z,81.70
2022-11-05T12:29:17.257Z,82.21
2022-11-05T12:29:52.699Z,82.61
2022-11-05T12:30:52.670Z,82.31
2022-11-05T12:31:52.675Z,82.00
2022-11-05T12:32:52.689Z,82.31
2022-11-05T12:33:52.647Z,81.39
2022-11-05T12:34:52.620Z,80.78
2022-11-05T12:35:57.607Z,80.98
2022-11-05T12:36:52.595Z,80.78
2022-11-05T12:37:52.604Z,80.57
2022-11-05T12:38:52.545Z,80.98
2022-11-05T12:39:52.543Z,81.80
2022-11-05T12:40:52.551Z,81.80
2022-11-05T12:41:52.513Z,81.59
2022-11-05T12:42:54.052Z,81.90
2022-11-05T12:43:52.553Z,80.82
2022-11-05T12:44:52.483Z,80.91
2022-11-05T12:45:52.458Z,81.02
2022-11-05T12:46:52.451Z,80.30
2022-11-05T12:47:52.482Z,79.80
2022-11-05T12:48:52.455Z,80.20
2022-11-05T12:49:52.433Z,81.23
2022-11-05T12:50:52.419Z,80.00
2022-11-05T12:51:52.382Z,79.43